sensor_id;sensor_type;location;lat;lon;timestamp;temperature;humidity
68109;SHT30;54893;49.864;19.084;2023-03-13T00:03:54;4.76;75.73
68109;SHT30;54893;49.864;19.084;2023-03-13T00:08:54;4.81;75.65
68109;SHT30;54893;49.864;19.084;2023-03-13T00:13:57;4.78;75.82
68109;SHT30;54893;49.864;19.084;2023-03-13T00:18:58;4.85;75.71
68109;SHT30;54893;49.864;19.084;2023-03-13T00:23:59;5.19;76.29
68109;SHT30;54893;49.864;19.084;2023-03-13T00:28:59;5.16;76.55
68109;SHT30;54893;49.864;19.084;2023-03-13T00:34:02;5.29;77.00
68109;SHT30;54893;49.864;19.084;2023-03-13T00:39:04;5.35;77.23
68109;SHT30;54893;49.864;19.084;2023-03-13T00:44:05;5.53;77.25
68109;SHT30;54893;49.864;19.084;2023-03-13T00:49:05;5.59;77.14
68109;SHT30;54893;49.864;19.084;2023-03-13T00:54:06;5.66;77.28
68109;SHT30;54893;49.864;19.084;2023-03-13T00:59:06;5.77;77.38
68109;SHT30;54893;49.864;19.084;2023-03-13T01:04:09;5.91;77.15
68109;SHT30;54893;49.864;19.084;2023-03-13T01:09:13;5.80;77.66
68109;SHT30;54893;49.864;19.084;2023-03-13T01:14:17;5.80;77.88
68109;SHT30;54893;49.864;19.084;2023-03-13T01:19:17;5.77;78.33
68109;SHT30;54893;49.864;19.084;2023-03-13T01:24:18;5.87;78.05
68109;SHT30;54893;49.864;19.084;2023-03-13T01:29:19;6.00;77.74
68109;SHT30;54893;49.864;19.084;2023-03-13T01:34:19;5.86;78.02
68109;SHT30;54893;49.864;19.084;2023-03-13T01:39:19;6.03;77.80
68109;SHT30;54893;49.864;19.084;2023-03-13T01:44:26;5.97;77.97
68109;SHT30;54893;49.864;19.084;2023-03-13T01:49:28;5.94;78.02
68109;SHT30;54893;49.864;19.084;2023-03-13T01:54:42;5.80;78.87
68109;SHT30;54893;49.864;19.084;2023-03-13T01:59:53;5.86;79.00
68109;SHT30;54893;49.864;19.084;2023-03-13T02:04:58;5.95;79.01
68109;SHT30;54893;49.864;19.084;2023-03-13T02:10:00;6.04;79.14
68109;SHT30;54893;49.864;19.084;2023-03-13T02:15:11;6.00;79.52
68109;SHT30;54893;49.864;19.084;2023-03-13T02:20:14;5.94;79.86
68109;SHT30;54893;49.864;19.084;2023-03-13T02:30:24;6.17;79.43
68109;SHT30;54893;49.864;19.084;2023-03-13T02:35:25;6.18;79.41
68109;SHT30;54893;49.864;19.084;2023-03-13T02:40:29;6.01;80.03
68109;SHT30;54893;49.864;19.084;2023-03-13T02:45:30;6.03;79.76
68109;SHT30;54893;49.864;19.084;2023-03-13T02:50:30;6.04;79.72
68109;SHT30;54893;49.864;19.084;2023-03-13T02:55:38;5.97;80.22
68109;SHT30;54893;49.864;19.084;2023-03-13T03:00:40;5.91;80.52
68109;SHT30;54893;49.864;19.084;2023-03-13T03:05:40;6.00;80.59
68109;SHT30;54893;49.864;19.084;2023-03-13T03:10:40;5.89;81.58
68109;SHT30;54893;49.864;19.084;2023-03-13T03:15:41;5.90;81.50
68109;SHT30;54893;49.864;19.084;2023-03-13T03:20:41;6.00;81.41
68109;SHT30;54893;49.864;19.084;2023-03-13T03:25:42;5.93;81.66
68109;SHT30;54893;49.864;19.084;2023-03-13T03:30:43;5.77;82.18
68109;SHT30;54893;49.864;19.084;2023-03-13T03:35:43;5.95;81.87
68109;SHT30;54893;49.864;19.084;2023-03-13T03:40:43;6.00;81.76
68109;SHT30;54893;49.864;19.084;2023-03-13T03:45:43;6.00;81.75
68109;SHT30;54893;49.864;19.084;2023-03-13T03:50:44;5.93;81.83
68109;SHT30;54893;49.864;19.084;2023-03-13T03:55:44;6.13;81.90
68109;SHT30;54893;49.864;19.084;2023-03-13T04:00:46;6.03;82.96
68109;SHT30;54893;49.864;19.084;2023-03-13T04:05:47;6.00;83.09
68109;SHT30;54893;49.864;19.084;2023-03-13T04:10:47;6.21;82.36
68109;SHT30;54893;49.864;19.084;2023-03-13T04:15:47;6.34;82.25
68109;SHT30;54893;49.864;19.084;2023-03-13T04:20:48;6.31;82.43
68109;SHT30;54893;49.864;19.084;2023-03-13T04:25:48;6.35;81.95
68109;SHT30;54893;49.864;19.084;2023-03-13T04:30:50;6.32;82.17
68109;SHT30;54893;49.864;19.084;2023-03-13T04:35:52;6.13;82.93
68109;SHT30;54893;49.864;19.084;2023-03-13T04:40:52;6.13;82.97
68109;SHT30;54893;49.864;19.084;2023-03-13T04:45:53;5.94;83.43
68109;SHT30;54893;49.864;19.084;2023-03-13T04:50:54;6.10;83.51
68109;SHT30;54893;49.864;19.084;2023-03-13T04:55:54;6.00;83.83
68109;SHT30;54893;49.864;19.084;2023-03-13T05:00:54;5.81;84.29
68109;SHT30;54893;49.864;19.084;2023-03-13T05:05:56;5.77;84.23
68109;SHT30;54893;49.864;19.084;2023-03-13T05:10:56;5.78;83.88
68109;SHT30;54893;49.864;19.084;2023-03-13T05:15:56;5.77;84.00
68109;SHT30;54893;49.864;19.084;2023-03-13T05:20:57;5.75;83.88
68109;SHT30;54893;49.864;19.084;2023-03-13T05:25:57;5.74;84.45
68109;SHT30;54893;49.864;19.084;2023-03-13T05:30:58;5.77;83.94
68109;SHT30;54893;49.864;19.084;2023-03-13T05:35:58;5.89;83.91
68109;SHT30;54893;49.864;19.084;2023-03-13T05:40:58;5.95;83.61
68109;SHT30;54893;49.864;19.084;2023-03-13T05:45:59;6.01;83.23
68109;SHT30;54893;49.864;19.084;2023-03-13T05:50:59;6.11;83.02
68109;SHT30;54893;49.864;19.084;2023-03-13T05:55:59;6.18;83.08
68109;SHT30;54893;49.864;19.084;2023-03-13T06:01:11;6.25;82.65
68109;SHT30;54893;49.864;19.084;2023-03-13T06:06:12;6.28;82.83
68109;SHT30;54893;49.864;19.084;2023-03-13T06:11:12;6.49;82.40
68109;SHT30;54893;49.864;19.084;2023-03-13T06:16:12;6.65;82.21
68109;SHT30;54893;49.864;19.084;2023-03-13T06:21:13;6.85;81.74
68109;SHT30;54893;49.864;19.084;2023-03-13T06:26:13;7.13;80.96
68109;SHT30;54893;49.864;19.084;2023-03-13T06:31:14;7.39;80.28
68109;SHT30;54893;49.864;19.084;2023-03-13T06:36:14;7.57;79.77
68109;SHT30;54893;49.864;19.084;2023-03-13T06:41:14;7.93;78.65
68109;SHT30;54893;49.864;19.084;2023-03-13T06:46:18;8.22;78.01
68109;SHT30;54893;49.864;19.084;2023-03-13T06:51:20;8.83;76.92
68109;SHT30;54893;49.864;19.084;2023-03-13T06:56:21;9.27;75.91
68109;SHT30;54893;49.864;19.084;2023-03-13T07:01:21;9.46;75.30
68109;SHT30;54893;49.864;19.084;2023-03-13T07:06:22;9.94;74.74
68109;SHT30;54893;49.864;19.084;2023-03-13T07:11:22;9.91;74.15
68109;SHT30;54893;49.864;19.084;2023-03-13T07:16:24;10.02;74.38
68109;SHT30;54893;49.864;19.084;2023-03-13T07:21:24;9.03;75.62
68109;SHT30;54893;49.864;19.084;2023-03-13T07:26:24;8.73;76.24
68109;SHT30;54893;49.864;19.084;2023-03-13T07:31:25;8.82;76.16
68109;SHT30;54893;49.864;19.084;2023-03-13T07:36:27;9.10;75.76
68109;SHT30;54893;49.864;19.084;2023-03-13T07:41:28;9.43;74.58
68109;SHT30;54893;49.864;19.084;2023-03-13T07:46:29;9.51;74.24
68109;SHT30;54893;49.864;19.084;2023-03-13T07:51:29;9.67;74.20
68109;SHT30;54893;49.864;19.084;2023-03-13T07:56:31;9.82;73.94
68109;SHT30;54893;49.864;19.084;2023-03-13T08:01:31;10.38;72.95
68109;SHT30;54893;49.864;19.084;2023-03-13T08:06:33;10.15;72.75
68109;SHT30;54893;49.864;19.084;2023-03-13T08:11:38;10.22;72.27
68109;SHT30;54893;49.864;19.084;2023-03-13T08:16:40;10.63;71.76
68109;SHT30;54893;49.864;19.084;2023-03-13T08:21:40;10.90;70.76
68109;SHT30;54893;49.864;19.084;2023-03-13T08:26:41;11.10;69.82
68109;SHT30;54893;49.864;19.084;2023-03-13T08:31:48;11.26;69.60
68109;SHT30;54893;49.864;19.084;2023-03-13T08:36:50;11.22;69.40
68109;SHT30;54893;49.864;19.084;2023-03-13T08:41:51;11.34;69.18
68109;SHT30;54893;49.864;19.084;2023-03-13T08:46:52;11.58;68.91
68109;SHT30;54893;49.864;19.084;2023-03-13T08:51:52;11.60;67.40
68109;SHT30;54893;49.864;19.084;2023-03-13T08:56:52;12.06;67.17
68109;SHT30;54893;49.864;19.084;2023-03-13T09:01:53;12.05;65.66
68109;SHT30;54893;49.864;19.084;2023-03-13T09:06:53;11.85;65.67
68109;SHT30;54893;49.864;19.084;2023-03-13T09:11:54;11.75;66.89
68109;SHT30;54893;49.864;19.084;2023-03-13T09:16:54;11.50;66.95
68109;SHT30;54893;49.864;19.084;2023-03-13T09:21:55;11.68;67.80
68109;SHT30;54893;49.864;19.084;2023-03-13T09:26:56;11.85;67.67
68109;SHT30;54893;49.864;19.084;2023-03-13T09:31:56;11.84;67.24
68109;SHT30;54893;49.864;19.084;2023-03-13T09:36:56;11.68;66.39
68109;SHT30;54893;49.864;19.084;2023-03-13T09:47:18;11.47;66.10
68109;SHT30;54893;49.864;19.084;2023-03-13T09:52:24;11.28;65.45
68109;SHT30;54893;49.864;19.084;2023-03-13T10:02:47;11.36;65.61
68109;SHT30;54893;49.864;19.084;2023-03-13T10:08:16;11.58;64.77
68109;SHT30;54893;49.864;19.084;2023-03-13T10:13:40;11.70;64.63
68109;SHT30;54893;49.864;19.084;2023-03-13T10:18:44;11.61;64.34
68109;SHT30;54893;49.864;19.084;2023-03-13T10:29:23;11.91;63.70
68109;SHT30;54893;49.864;19.084;2023-03-13T10:34:26;12.29;62.15
68109;SHT30;54893;49.864;19.084;2023-03-13T10:39:28;12.20;62.16
68109;SHT30;54893;49.864;19.084;2023-03-13T10:44:31;12.02;62.77
68109;SHT30;54893;49.864;19.084;2023-03-13T10:49:32;12.08;61.63
68109;SHT30;54893;49.864;19.084;2023-03-13T10:54:34;12.53;61.32
68109;SHT30;54893;49.864;19.084;2023-03-13T10:59:42;12.85;58.39
68109;SHT30;54893;49.864;19.084;2023-03-13T11:04:43;12.90;58.27
68109;SHT30;54893;49.864;19.084;2023-03-13T11:10:00;12.73;56.81
68109;SHT30;54893;49.864;19.084;2023-03-13T11:15:02;12.93;57.96
68109;SHT30;54893;49.864;19.084;2023-03-13T11:20:20;13.48;54.87
68109;SHT30;54893;49.864;19.084;2023-03-13T11:25:34;13.60;54.86
68109;SHT30;54893;49.864;19.084;2023-03-13T11:30:49;13.50;54.29
68109;SHT30;54893;49.864;19.084;2023-03-13T11:56:50;13.97;52.74
68109;SHT30;54893;49.864;19.084;2023-03-13T12:01:59;13.94;53.54
68109;SHT30;54893;49.864;19.084;2023-03-13T12:07:05;14.18;52.45
68109;SHT30;54893;49.864;19.084;2023-03-13T12:12:28;14.25;53.01
68109;SHT30;54893;49.864;19.084;2023-03-13T12:17:36;14.46;53.17
68109;SHT30;54893;49.864;19.084;2023-03-13T12:22:44;14.22;53.88
68109;SHT30;54893;49.864;19.084;2023-03-13T12:27:51;13.95;52.68
68109;SHT30;54893;49.864;19.084;2023-03-13T12:32:58;13.73;55.17
68109;SHT30;54893;49.864;19.084;2023-03-13T12:38:25;13.70;56.02
68109;SHT30;54893;49.864;19.084;2023-03-13T12:43:31;14.00;54.94
68109;SHT30;54893;49.864;19.084;2023-03-13T12:59:24;13.19;58.92
68109;SHT30;54893;49.864;19.084;2023-03-13T13:04:32;12.68;61.48
68109;SHT30;54893;49.864;19.084;2023-03-13T13:15:15;11.90;65.79
68109;SHT30;54893;49.864;19.084;2023-03-13T13:20:42;11.60;67.94
68109;SHT30;54893;49.864;19.084;2023-03-13T13:25:44;11.36;68.39
68109;SHT30;54893;49.864;19.084;2023-03-13T13:30:44;11.03;69.56
68109;SHT30;54893;49.864;19.084;2023-03-13T13:35:46;10.92;71.22
68109;SHT30;54893;49.864;19.084;2023-03-13T13:51:28;11.33;68.11
68109;SHT30;54893;49.864;19.084;2023-03-13T13:56:34;11.37;68.68
68109;SHT30;54893;49.864;19.084;2023-03-13T14:01:36;11.24;68.66
68109;SHT30;54893;49.864;19.084;2023-03-13T14:06:38;11.28;67.90
68109;SHT30;54893;49.864;19.084;2023-03-13T14:11:41;11.30;67.64
68109;SHT30;54893;49.864;19.084;2023-03-13T14:16:49;11.31;67.57
68109;SHT30;54893;49.864;19.084;2023-03-13T14:21:56;11.44;67.10
68109;SHT30;54893;49.864;19.084;2023-03-13T14:26:57;11.36;67.53
68109;SHT30;54893;49.864;19.084;2023-03-13T14:31:58;11.46;67.71
68109;SHT30;54893;49.864;19.084;2023-03-13T14:37:00;11.75;66.92
68109;SHT30;54893;49.864;19.084;2023-03-13T14:42:04;11.50;68.06
68109;SHT30;54893;49.864;19.084;2023-03-13T14:47:08;11.26;68.47
68109;SHT30;54893;49.864;19.084;2023-03-13T14:52:21;11.26;68.15
68109;SHT30;54893;49.864;19.084;2023-03-13T14:57:24;11.20;68.23
68109;SHT30;54893;49.864;19.084;2023-03-13T15:02:29;11.03;68.98
68109;SHT30;54893;49.864;19.084;2023-03-13T15:07:46;10.89;69.72
68109;SHT30;54893;49.864;19.084;2023-03-13T15:12:47;10.88;69.81
68109;SHT30;54893;49.864;19.084;2023-03-13T15:17:49;10.89;70.25
68109;SHT30;54893;49.864;19.084;2023-03-13T15:22:49;10.82;70.35
68109;SHT30;54893;49.864;19.084;2023-03-13T15:27:49;10.73;70.75
68109;SHT30;54893;49.864;19.084;2023-03-13T15:32:50;10.79;70.95
68109;SHT30;54893;49.864;19.084;2023-03-13T15:37:51;10.79;70.70
68109;SHT30;54893;49.864;19.084;2023-03-13T15:42:51;10.69;71.08
68109;SHT30;54893;49.864;19.084;2023-03-13T15:47:52;10.58;71.73
68109;SHT30;54893;49.864;19.084;2023-03-13T15:52:52;10.62;71.48
68109;SHT30;54893;49.864;19.084;2023-03-13T15:57:53;10.58;71.57
68109;SHT30;54893;49.864;19.084;2023-03-13T16:02:53;10.66;71.42
68109;SHT30;54893;49.864;19.084;2023-03-13T16:07:54;10.59;71.57
68109;SHT30;54893;49.864;19.084;2023-03-13T16:12:54;10.72;71.19
68109;SHT30;54893;49.864;19.084;2023-03-13T16:17:55;10.82;70.51
68109;SHT30;54893;49.864;19.084;2023-03-13T16:22:55;10.93;69.87
68109;SHT30;54893;49.864;19.084;2023-03-13T16:27:57;11.17;68.90
68109;SHT30;54893;49.864;19.084;2023-03-13T16:32:58;11.38;67.92
68109;SHT30;54893;49.864;19.084;2023-03-13T16:37:59;11.44;67.39
68109;SHT30;54893;49.864;19.084;2023-03-13T16:42:59;11.63;66.02
68109;SHT30;54893;49.864;19.084;2023-03-13T16:48:00;11.81;64.94
68109;SHT30;54893;49.864;19.084;2023-03-13T16:53:00;11.85;64.49
68109;SHT30;54893;49.864;19.084;2023-03-13T16:58:01;11.75;64.79
68109;SHT30;54893;49.864;19.084;2023-03-13T17:03:01;11.66;64.72
68109;SHT30;54893;49.864;19.084;2023-03-13T17:08:02;11.63;64.64
68109;SHT30;54893;49.864;19.084;2023-03-13T17:13:02;11.63;64.53
68109;SHT30;54893;49.864;19.084;2023-03-13T17:18:05;11.64;64.01
68109;SHT30;54893;49.864;19.084;2023-03-13T17:23:05;11.53;64.46
68109;SHT30;54893;49.864;19.084;2023-03-13T17:28:11;11.50;64.53
68109;SHT30;54893;49.864;19.084;2023-03-13T17:33:12;11.57;63.80
68109;SHT30;54893;49.864;19.084;2023-03-13T17:38:12;11.85;62.46
68109;SHT30;54893;49.864;19.084;2023-03-13T17:43:12;11.81;62.59
68109;SHT30;54893;49.864;19.084;2023-03-13T17:48:13;11.70;62.73
68109;SHT30;54893;49.864;19.084;2023-03-13T17:53:14;11.60;63.24
68109;SHT30;54893;49.864;19.084;2023-03-13T17:58:14;11.78;62.62
68109;SHT30;54893;49.864;19.084;2023-03-13T18:03:14;11.99;61.55
68109;SHT30;54893;49.864;19.084;2023-03-13T18:08:15;11.87;62.13
68109;SHT30;54893;49.864;19.084;2023-03-13T18:13:15;11.97;61.35
68109;SHT30;54893;49.864;19.084;2023-03-13T18:18:15;11.88;62.23
68109;SHT30;54893;49.864;19.084;2023-03-13T18:23:16;11.95;60.98
68109;SHT30;54893;49.864;19.084;2023-03-13T18:28:16;11.92;61.24
68109;SHT30;54893;49.864;19.084;2023-03-13T18:33:16;11.94;60.82
68109;SHT30;54893;49.864;19.084;2023-03-13T18:38:17;11.95;60.30
68109;SHT30;54893;49.864;19.084;2023-03-13T18:43:18;12.35;58.69
68109;SHT30;54893;49.864;19.084;2023-03-13T18:48:18;12.35;58.40
68109;SHT30;54893;49.864;19.084;2023-03-13T18:53:18;12.56;57.61
68109;SHT30;54893;49.864;19.084;2023-03-13T18:58:19;12.56;57.15
68109;SHT30;54893;49.864;19.084;2023-03-13T19:03:19;12.55;56.13
68109;SHT30;54893;49.864;19.084;2023-03-13T19:08:20;12.75;55.40
68109;SHT30;54893;49.864;19.084;2023-03-13T19:13:21;12.78;54.74
68109;SHT30;54893;49.864;19.084;2023-03-13T19:18:21;12.59;54.97
68109;SHT30;54893;49.864;19.084;2023-03-13T19:23:21;12.69;54.32
68109;SHT30;54893;49.864;19.084;2023-03-13T19:28:22;12.69;54.20
68109;SHT30;54893;49.864;19.084;2023-03-13T19:33:22;12.53;55.05
68109;SHT30;54893;49.864;19.084;2023-03-13T19:38:24;12.49;54.93
68109;SHT30;54893;49.864;19.084;2023-03-13T19:43:24;12.78;53.80
68109;SHT30;54893;49.864;19.084;2023-03-13T19:48:24;12.63;54.25
68109;SHT30;54893;49.864;19.084;2023-03-13T19:53:25;12.36;55.42
68109;SHT30;54893;49.864;19.084;2023-03-13T19:58:25;12.31;55.58
68109;SHT30;54893;49.864;19.084;2023-03-13T20:03:25;12.17;56.38
68109;SHT30;54893;49.864;19.084;2023-03-13T20:08:27;12.42;55.92
68109;SHT30;54893;49.864;19.084;2023-03-13T20:13:28;12.41;56.15
68109;SHT30;54893;49.864;19.084;2023-03-13T20:18:28;12.36;56.44
68109;SHT30;54893;49.864;19.084;2023-03-13T20:23:29;12.32;56.53
68109;SHT30;54893;49.864;19.084;2023-03-13T20:28:29;12.35;56.34
68109;SHT30;54893;49.864;19.084;2023-03-13T20:33:29;12.20;56.94
68109;SHT30;54893;49.864;19.084;2023-03-13T20:38:30;12.18;56.91
68109;SHT30;54893;49.864;19.084;2023-03-13T20:43:32;12.18;57.03
68109;SHT30;54893;49.864;19.084;2023-03-13T20:48:37;12.32;56.49
68109;SHT30;54893;49.864;19.084;2023-03-13T20:53:39;12.35;56.40
68109;SHT30;54893;49.864;19.084;2023-03-13T20:58:40;12.42;56.29
68109;SHT30;54893;49.864;19.084;2023-03-13T21:03:41;12.62;55.53
68109;SHT30;54893;49.864;19.084;2023-03-13T21:08:42;12.62;55.93
68109;SHT30;54893;49.864;19.084;2023-03-13T21:13:43;12.79;55.38
68109;SHT30;54893;49.864;19.084;2023-03-13T21:18:44;12.97;55.03
68109;SHT30;54893;49.864;19.084;2023-03-13T21:23:45;13.12;55.10
68109;SHT30;54893;49.864;19.084;2023-03-13T21:28:46;13.17;55.03
68109;SHT30;54893;49.864;19.084;2023-03-13T21:33:47;13.02;55.12
68109;SHT30;54893;49.864;19.084;2023-03-13T21:38:48;13.07;54.79
68109;SHT30;54893;49.864;19.084;2023-03-13T21:43:49;12.95;55.17
68109;SHT30;54893;49.864;19.084;2023-03-13T21:48:49;13.00;54.84
68109;SHT30;54893;49.864;19.084;2023-03-13T21:53:49;13.22;54.07
68109;SHT30;54893;49.864;19.084;2023-03-13T21:58:50;13.03;54.82
68109;SHT30;54893;49.864;19.084;2023-03-13T22:03:50;13.00;54.97
68109;SHT30;54893;49.864;19.084;2023-03-13T22:08:51;12.88;55.66
68109;SHT30;54893;49.864;19.084;2023-03-13T22:13:51;12.83;55.93
68109;SHT30;54893;49.864;19.084;2023-03-13T22:18:52;12.72;56.55
68109;SHT30;54893;49.864;19.084;2023-03-13T22:23:52;12.58;57.09
68109;SHT30;54893;49.864;19.084;2023-03-13T22:28:53;12.75;56.52
68109;SHT30;54893;49.864;19.084;2023-03-13T22:33:53;12.68;56.70
68109;SHT30;54893;49.864;19.084;2023-03-13T22:38:53;12.60;56.74
68109;SHT30;54893;49.864;19.084;2023-03-13T22:43:54;12.82;55.74
68109;SHT30;54893;49.864;19.084;2023-03-13T22:48:54;13.00;54.89
68109;SHT30;54893;49.864;19.084;2023-03-13T22:53:54;12.83;55.65
68109;SHT30;54893;49.864;19.084;2023-03-13T22:58:55;12.97;54.60
68109;SHT30;54893;49.864;19.084;2023-03-13T23:03:55;13.09;53.98
68109;SHT30;54893;49.864;19.084;2023-03-13T23:08:56;13.36;52.81
68109;SHT30;54893;49.864;19.084;2023-03-13T23:13:56;13.43;52.91
68109;SHT30;54893;49.864;19.084;2023-03-13T23:18:56;13.64;52.11
68109;SHT30;54893;49.864;19.084;2023-03-13T23:23:57;13.09;54.12
68109;SHT30;54893;49.864;19.084;2023-03-13T23:28:57;12.83;54.67
68109;SHT30;54893;49.864;19.084;2023-03-13T23:33:57;12.70;55.52
68109;SHT30;54893;49.864;19.084;2023-03-13T23:38:58;12.62;56.14
68109;SHT30;54893;49.864;19.084;2023-03-13T23:43:58;12.45;56.88
68109;SHT30;54893;49.864;19.084;2023-03-13T23:48:59;12.21;57.86
68109;SHT30;54893;49.864;19.084;2023-03-13T23:54:00;12.18;58.54
68109;SHT30;54893;49.864;19.084;2023-03-13T23:59:00;12.05;58.99
